Buoy 43555

sailwx.info

Track history (hours):
 
Tides and Currents Weather Stations Pressure Air Temp Water Temp Dewpoint Dewpoint Depression Visibility Wind Speed Wind Dir Waves Ship Positions

Yuehuilaiyu43555

Last reported at 2017-Nov-22 19:45 UTC. Time now 2017-Nov-22 20:39 UTC.
Position N 33°28' W 023°52'.

Length 21 m.

Type: Fishing. MMSI: 412466967.

Water temperature 21.9 ° C

Date/timePositionNaut miles runAvg speedWind from/ knotsBaromVisibWave heightAir tempDewpointWater temp
2017-Nov-22 19:45N 33°28' W 023°52'0 0.0 21.9
2017-Nov-22 19:30N 33°28' W 023°52'0 0.0 21.9
2017-Nov-22 19:15N 33°28' W 023°52'5 4.9 21.9
2017-Nov-22 18:15N 33°32' W 023°53'414.9 21.9
2017-Nov-22 18:00N 33°29' W 023°52'0 0.0 21.9
2017-Nov-22 17:45N 33°29' W 023°52'4 3.7 22.0
2017-Nov-22 16:45N 33°32' W 023°53'0 0.0 22.0
2017-Nov-22 16:30N 33°32' W 023°53'0 0.0 22.0
2017-Nov-22 15:00N 33°32' W 023°53'0 0.0 22.0
2017-Nov-22 13:00N 33°32' W 023°53'0 0.0 22.0
2017-Nov-22 12:45N 33°32' W 023°53'0 0.0 22.0
2017-Nov-22 12:15N 33°32' W 023°53'1 3.1 22.0
2017-Nov-22 12:00N 33°33' W 023°54'1 1.0 22.0
2017-Nov-22 11:15N 33°34' W 023°55'0 0.0 22.0
2017-Nov-22 11:00N 33°34' W 023°55'0 0.0 22.0
2017-Nov-22 10:30N 33°34' W 023°55'0 0.0 22.0
2017-Nov-22 10:15N 33°34' W 023°55'0 0.0 22.0
2017-Nov-22 10:00N 33°34' W 023°55'1 4.7 22.0
2017-Nov-22 09:45N 33°34' W 023°53'0 0.0 22.0
2017-Nov-22 09:30N 33°34' W 023°53'0 0.0 22.0
2017-Nov-22 08:45N 33°34' W 023°53'1 1.2 22.0
2017-Nov-22 08:15N 33°35' W 023°53'1 5.2 22.0
2017-Nov-22 08:00N 33°34' W 023°53'1 1.3 22.0
2017-Nov-22 07:00N 33°35' W 023°53'1 4.8 22.0
2017-Nov-22 06:45N 33°36' W 023°53'0 0.0 250 / 141010.010.8 31.025.422.0
2017-Nov-22 05:30N 33°36' W 023°53'312.2 22.0
2017-Nov-22 05:15N 33°39' W 023°53'0 0.0 22.0
2017-Nov-22 05:00N 33°39' W 023°53'1 0.1 22.0
2017-Nov-21 23:45N 33°40' W 023°53'0 0.0 22.0
2017-Nov-21 23:00N 33°40' W 023°53'1 2.4 22.0
2017-Nov-21 22:45N 33°40' W 023°53'0 0.0 22.0
2017-Nov-21 22:15N 33°40' W 023°53'1 2.4 22.0
2017-Nov-21 22:00N 33°41' W 023°53'0 1.0 22.0
2017-Nov-21 21:30N 33°41' W 023°53'1 3.1 22.0
2017-Nov-21 21:15N 33°41' W 023°52'1 4.0 22.0
2017-Nov-21 21:00N 33°41' W 023°53'0 0.0 22.0
2017-Nov-21 20:00N 33°41' W 023°53'0 0.0 22.1
2017-Nov-21 19:45N 33°41' W 023°53'1 1.0 22.0
2017-Nov-21 18:30N 33°43' W 023°53'0 0.0 22.1
2017-Nov-21 18:15N 33°43' W 023°53'1 0.6 22.1
2017-Nov-21 17:00N 33°43' W 023°54'0 0.0 22.1
2017-Nov-21 16:45N 33°43' W 023°54'1 0.8 22.1
2017-Nov-21 15:15N 33°44' W 023°55'0 0.0 22.1
2017-Nov-21 15:00N 33°44' W 023°55'1 0.3 22.1
2017-Nov-21 12:30N 33°44' W 023°55'0 0.0 22.1
2017-Nov-21 12:15N 33°44' W 023°55'0 0.0 22.1
2017-Nov-21 11:30N 33°44' W 023°55'0 0.0 22.1
2017-Nov-21 10:45N 33°44' W 023°55'0 0.0 22.1
2017-Nov-21 10:15N 33°44' W 023°55'1 3.1 22.1
2017-Nov-21 10:00N 33°45' W 023°54'1 4.7 22.1
2017-Nov-21 09:45N 33°44' W 023°55'0 0.0 22.1
2017-Nov-21 08:45N 33°44' W 023°55'0 2.0 22.1
2017-Nov-21 08:30N 33°44' W 023°56'0 0.0 22.1
2017-Nov-21 08:15N 33°44' W 023°56'0 1.0 22.1
2017-Nov-21 07:45N 33°44' W 023°55'0 0.0 22.1
2017-Nov-21 07:30N 33°44' W 023°55'0 2.0 22.1
2017-Nov-21 07:15N 33°44' W 023°56'0 0.0 22.1
2017-Nov-21 07:00N 33°44' W 023°56'0 0.0 22.1
2017-Nov-21 06:00N 33°44' W 023°56'1 3.1 22.1
2017-Nov-21 05:45N 33°45' W 023°56'1 6.0 22.1
2017-Nov-21 05:30N 33°45' W 023°58'0 0.0 22.1
2017-Nov-21 05:15N 33°45' W 023°58'0 0.0 22.1
2017-Nov-21 03:45N 33°45' W 023°58'0 0.0 22.1
2017-Nov-21 00:15N 33°45' W 023°58'0 0.0 22.2
2017-Nov-21 00:00N 33°45' W 023°58'1 0.8 22.2
2017-Nov-20 23:15N 33°44' W 023°58'1 4.0 22.2
2017-Nov-20 23:00N 33°44' W 023°59'0 0.0 22.2
2017-Nov-20 22:30N 33°44' W 023°59'0 2.0 22.2
2017-Nov-20 22:15N 33°44' W 024°00'0 0.0 22.2
2017-Nov-20 21:45N 33°44' W 024°00'1 4.0 22.2
2017-Nov-20 21:30N 33°44' W 024°01'0 0.0 22.2
2017-Nov-20 20:45N 33°44' W 024°01'0 0.0 22.2
2017-Nov-20 20:30N 33°44' W 024°01'1 3.1 22.2
2017-Nov-20 20:15N 33°44' W 024°01'0 0.0 22.2
2017-Nov-20 20:00N 33°44' W 024°01'0 0.0 22.2
2017-Nov-20 19:45N 33°44' W 024°01'1 1.2 22.2
2017-Nov-20 18:45N 33°43' W 024°02'0 0.0 22.2
2017-Nov-20 18:30N 33°43' W 024°02'0 0.0 22.2
2017-Nov-20 17:00N 33°43' W 024°02'0 0.0 22.1
2017-Nov-20 16:45N 33°43' W 024°02'1 0.5 22.1
2017-Nov-20 15:30N 33°43' W 024°02'0 0.0 22.1
2017-Nov-20 15:15N 33°43' W 024°02'1 0.5 22.1
2017-Nov-20 12:45N 33°43' W 024°03'0 0.0 22.1
2017-Nov-20 12:00N 33°43' W 024°03'0 0.0 22.1
2017-Nov-20 11:45N 33°43' W 024°03'0 0.0 22.1
2017-Nov-20 11:15N 33°43' W 024°03'0 0.0 22.1
2017-Nov-20 11:00N 33°43' W 024°03'0 0.7 22.1
2017-Nov-20 10:15N 33°43' W 024°04'0 0.0 22.1
2017-Nov-20 10:00N 33°43' W 024°04'0 0.3 22.1
2017-Nov-20 08:30N 33°43' W 024°04'0 2.0 22.1
2017-Nov-20 08:15N 33°43' W 024°04'0 0.0 22.1
2017-Nov-20 08:00N 33°43' W 024°04'0 0.0 22.1
2017-Nov-20 07:15N 33°43' W 024°04'0 0.0 22.1
2017-Nov-20 06:30N 33°43' W 024°04'0 0.0 22.1
2017-Nov-20 06:15N 33°43' W 024°04'0 1.0 22.1
2017-Nov-20 05:45N 33°43' W 024°04'0 2.0 22.1
2017-Nov-20 05:30N 33°43' W 024°05'1 0.5 22.1
2017-Nov-20 04:00N 33°44' W 024°05'0 0.0 22.1
2017-Nov-20 03:45N 33°44' W 024°05'1 0.3 22.1
2017-Nov-19 23:30N 33°43' W 024°05'1 0.8 22.1
2017-Nov-19 22:45N 33°42' W 024°05'0 0.0 22.1
2017-Nov-19 22:00N 33°42' W 024°05'0 2.0 22.1
2017-Nov-19 21:45N 33°42' W 024°05'0 0.0 22.1
2017-Nov-19 21:15N 33°42' W 024°05'0 0.0 22.1
2017-Nov-19 21:00N 33°42' W 024°05'0 0.0 22.1
2017-Nov-19 20:45N 33°42' W 024°05'0 0.0 22.1
2017-Nov-19 20:15N 33°42' W 024°05'0 0.0 22.1
2017-Nov-19 20:00N 33°42' W 024°05'0 0.7 22.2
2017-Nov-19 19:15N 33°42' W 024°04'0 0.0 22.1
2017-Nov-19 19:00N 33°42' W 024°04'0 1.0 22.1
2017-Nov-19 18:30N 33°42' W 024°04'0 0.0 22.1
2017-Nov-19 17:15N 33°42' W 024°04'0 0.0 22.2
2017-Nov-19 17:00N 33°42' W 024°04'1 0.5 22.2
2017-Nov-19 15:30N 33°43' W 024°03'1 0.6 22.1
2017-Nov-19 13:15N 33°44' W 024°02'0 0.0 22.1
2017-Nov-19 13:00N 33°44' W 024°02'1 0.8 22.0
2017-Nov-19 12:15N 33°44' W 024°02'0 0.0 22.0
2017-Nov-19 12:00N 33°44' W 024°02'1 1.6 22.0
2017-Nov-19 11:30N 33°44' W 024°02'0 0.0 22.0
2017-Nov-19 11:15N 33°44' W 024°02'1 1.2 22.0
2017-Nov-19 10:45N 33°44' W 024°02'1 3.1 22.0
2017-Nov-19 10:30N 33°45' W 024°01'0 0.0 22.0
2017-Nov-19 10:15N 33°45' W 024°01'0 0.0 22.0
2017-Nov-19 09:45N 33°45' W 024°01'0 0.0 22.0
2017-Nov-19 09:30N 33°45' W 024°01'0 0.0 22.0
2017-Nov-19 09:00N 33°45' W 024°01'0 2.0 22.0
2017-Nov-19 08:45N 33°45' W 024°01'0 0.0 22.0
2017-Nov-19 08:30N 33°45' W 024°01'0 0.0 22.0
2017-Nov-19 07:45N 33°45' W 024°01'1 2.4 22.0
2017-Nov-19 07:30N 33°46' W 024°01'1 1.2 22.0
2017-Nov-19 07:00N 33°45' W 024°01'0 0.0 22.0
2017-Nov-19 06:45N 33°45' W 024°01'1 0.8 22.0
2017-Nov-19 06:00N 33°46' W 024°01'1 3.1 22.0
2017-Nov-19 05:45N 33°46' W 024°00'0 0.0 22.1
2017-Nov-19 05:15N 33°46' W 024°00'0 0.0 22.1
2017-Nov-19 04:15N 33°46' W 024°00'1 5.2 22.0
2017-Nov-19 04:00N 33°47' W 023°59'0 0.0 22.1
2017-Nov-19 00:00N 33°47' W 023°59'1 2.4 22.1
2017-Nov-18 23:45N 33°48' W 023°59'0 0.0 22.1
2017-Nov-18 23:15N 33°48' W 023°59'1 3.1 22.1
2017-Nov-18 23:00N 33°49' W 023°59'1 1.0 22.1
2017-Nov-18 22:15N 33°49' W 023°59'0 0.0 22.1
2017-Nov-18 22:00N 33°49' W 023°59'1 1.6 22.1
2017-Nov-18 21:30N 33°49' W 023°59'1 4.8 22.1
2017-Nov-18 21:15N 33°50' W 023°59'0 0.0 22.1
2017-Nov-18 21:00N 33°50' W 023°59'0 0.0 22.1
2017-Nov-18 20:30N 33°50' W 023°59'0 0.0 22.1
2017-Nov-18 20:15N 33°50' W 023°59'0 0.0 22.1
2017-Nov-18 19:45N 33°50' W 023°59'0 2.0 22.1
2017-Nov-18 19:30N 33°50' W 023°58'1 1.7 22.1
2017-Nov-18 18:45N 33°51' W 023°59'0 0.7 22.2
2017-Nov-18 18:00N 33°51' W 023°59'0 0.0 22.2
2017-Nov-18 17:45N 33°51' W 023°59'0 0.0 22.2
2017-Nov-18 17:30N 33°51' W 023°59'0 0.0 22.3
2017-Nov-18 17:15N 33°51' W 023°59'3 2.1 22.3
2017-Nov-18 15:45N 33°53' W 024°02'2 9.4 22.4
2017-Nov-18 15:30N 33°52' W 024°00'2 0.8 22.4
2017-Nov-18 12:30N 33°53' W 024°02'0 0.0 22.3
2017-Nov-18 12:00N 33°53' W 024°02'1 3.1 22.2
2017-Nov-18 11:45N 33°54' W 024°02'0 0.0 22.1
2017-Nov-18 11:00N 33°54' W 024°02'0 2.0 22.1
2017-Nov-18 10:45N 33°54' W 024°03'0 0.0 22.1
2017-Nov-18 10:30N 33°54' W 024°03'0 0.0 22.0
2017-Nov-18 10:15N 33°54' W 024°03'1 2.4 22.0
2017-Nov-18 10:00N 33°55' W 024°03'0 0.0 22.0
2017-Nov-18 09:45N 33°55' W 024°03'1 2.0 22.0
2017-Nov-18 09:00N 33°55' W 024°05'0 0.0 22.0
2017-Nov-18 08:45N 33°55' W 024°05'1 1.6 22.0
2017-Nov-18 08:15N 33°55' W 024°05'0 0.0 22.0
2017-Nov-18 08:00N 33°55' W 024°05'1 1.2 22.0
2017-Nov-18 07:30N 33°55' W 024°05'1 3.1 22.0
2017-Nov-18 07:15N 33°55' W 024°06'0 0.0 22.0
2017-Nov-18 06:30N 33°55' W 024°06'1 1.2 22.0
2017-Nov-18 06:00N 33°56' W 024°06'0 0.0 22.0
2017-Nov-18 05:45N 33°56' W 024°06'2 1.6 22.0
2017-Nov-18 04:15N 33°58' W 024°08'0 0.0 22.0
2017-Nov-18 00:15N 33°58' W 024°08'1 1.0 22.1
2017-Nov-17 23:30N 33°58' W 024°08'0 0.0 22.1
2017-Nov-17 23:15N 33°58' W 024°08'0 0.0 22.1
2017-Nov-17 22:30N 33°58' W 024°08'0 0.0 22.1
2017-Nov-17 22:15N 33°58' W 024°08'0 0.0 22.1
2017-Nov-17 22:00N 33°58' W 024°08'1 4.6 22.1
2017-Nov-17 21:45N 33°59' W 024°10'0 0.0 22.1
2017-Nov-17 21:00N 33°59' W 024°10'0 0.0 22.2
2017-Nov-17 20:45N 33°59' W 024°10'0 0.0 22.2
2017-Nov-17 20:30N 33°59' W 024°10'0 0.0 22.2
2017-Nov-17 20:15N 33°59' W 024°10'0 2.0 22.2
2017-Nov-17 20:00N 33°59' W 024°10'0 0.0 22.2
2017-Nov-17 19:45N 33°59' W 024°10'2 2.1 22.2
2017-Nov-17 19:00N 33°59' W 024°12'0 0.0 22.3
2017-Nov-17 18:45N 33°59' W 024°12'0 0.0 22.4
2017-Nov-17 18:15N 33°59' W 024°12'0 0.0 22.5
2017-Nov-17 17:45N 33°59' W 024°12'0 0.0 22.6
2017-Nov-17 17:30N 33°59' W 024°12'1 1.0 22.6
2017-Nov-17 16:00N 33°59' W 024°14'0 0.0 22.7
2017-Nov-17 15:45N 33°59' W 024°14'2 0.8 22.7
2017-Nov-17 13:00N 33°58' W 024°16'0 0.0 22.4
2017-Nov-17 12:45N 33°58' W 024°16'0 0.0 22.4
2017-Nov-17 12:15N 33°58' W 024°16'0 0.0 22.4
2017-Nov-17 12:00N 33°58' W 024°16'0 0.0 22.3
2017-Nov-17 11:15N 33°58' W 024°16'0 0.0 22.1
2017-Nov-17 11:00N 33°58' W 024°16'0 0.0 22.1
2017-Nov-17 10:45N 33°58' W 024°16'0 2.0 22.1
2017-Nov-17 10:30N 33°58' W 024°17'0 0.0 22.1
2017-Nov-17 10:15N 33°58' W 024°17'0 0.0 22.1
2017-Nov-17 09:30N 33°58' W 024°17'1 3.1 22.1
2017-Nov-17 09:15N 33°58' W 024°17'0 0.0 22.1
2017-Nov-17 09:00N 33°58' W 024°17'0 0.0 22.1
2017-Nov-17 08:30N 33°58' W 024°17'0 0.0 22.1
2017-Nov-17 08:00N 33°58' W 024°17'0 0.0 22.1
2017-Nov-17 07:30N 33°58' W 024°17'0 0.0 22.1
2017-Nov-17 07:00N 33°58' W 024°17'0 0.0 22.1
2017-Nov-17 06:30N 33°58' W 024°17'1 3.1 22.1
2017-Nov-17 06:15N 33°58' W 024°18'0 2.0 22.1
2017-Nov-17 06:00N 33°58' W 024°19'0 0.0 22.1
2017-Nov-17 04:30N 33°58' W 024°19'2 0.4 22.1
2017-Nov-17 00:00N 33°58' W 024°21'0 0.0 22.1
2017-Nov-16 23:45N 33°58' W 024°21'0 0.0 22.1
2017-Nov-16 23:00N 33°58' W 024°21'0 2.0 22.1
2017-Nov-16 22:45N 33°58' W 024°22'0 0.0 22.1
2017-Nov-16 22:15N 33°58' W 024°22'1 3.1 22.1
2017-Nov-16 22:00N 33°58' W 024°21'1 1.0 22.1
2017-Nov-16 21:15N 33°58' W 024°22'1 1.2 22.1
2017-Nov-16 20:45N 33°58' W 024°22'1 2.4 22.1
2017-Nov-16 20:30N 33°58' W 024°22'0 0.0 22.1
2017-Nov-16 20:15N 33°58' W 024°22'0 0.0 22.1
2017-Nov-16 19:15N 33°58' W 024°22'0 0.0 22.1
2017-Nov-16 19:00N 33°58' W 024°22'0 0.0 22.1
2017-Nov-16 18:45N 33°58' W 024°22'0 0.0 22.1
2017-Nov-16 18:30N 33°58' W 024°22'1 2.0 22.1
2017-Nov-16 17:45N 33°58' W 024°23'0 0.0 22.2
2017-Nov-16 16:15N 33°58' W 024°23'2 6.2 22.2
2017-Nov-16 16:00N 33°59' W 024°25'0 0.0 22.2
2017-Nov-16 13:15N 33°59' W 024°25'0 0.7 22.1
2017-Nov-16 12:30N 33°59' W 024°25'0 0.0 22.1
2017-Nov-16 11:45N 33°59' W 024°25'0 0.0 22.1
2017-Nov-16 11:30N 33°59' W 024°25'0 0.0 22.1
2017-Nov-16 11:00N 33°59' W 024°25'1 2.4 22.1
2017-Nov-16 10:45N 34°00' W 024°25'1 1.0 22.1
2017-Nov-16 10:00N 33°59' W 024°26'0 0.0 22.0
2017-Nov-16 09:45N 33°59' W 024°26'0 0.0 22.0
2017-Nov-16 09:30N 33°59' W 024°26'0 0.0 22.0
2017-Nov-16 09:15N 33°59' W 024°26'1 2.4 22.0
2017-Nov-16 09:00N 34°00' W 024°26'0 0.0 22.0
2017-Nov-16 08:30N 34°00' W 024°26'0 0.0 22.0
2017-Nov-16 07:45N 34°00' W 024°26'0 0.0 22.0
2017-Nov-16 07:15N 34°00' W 024°26'0 0.0 22.0
2017-Nov-16 07:00N 34°00' W 024°26'0 0.0 22.0
2017-Nov-16 06:45N 34°00' W 024°26'1 3.1 22.0
2017-Nov-16 06:30N 34°01' W 024°26'1 3.1 22.0
2017-Nov-16 06:15N 34°01' W 024°27'0 0.0 22.0
2017-Nov-16 05:15N 34°01' W 024°27'3 6.1 22.0
2017-Nov-16 04:45N 34°02' W 024°31'0 0.0 22.0
2017-Nov-16 04:30N 34°02' W 024°31'0 0.0 22.0
2017-Nov-16 00:15N 34°02' W 024°31'0 0.0 22.0
2017-Nov-16 00:00N 34°02' W 024°31'1 1.0 22.0
2017-Nov-15 23:15N 34°02' W 024°31'0 0.0 22.1
2017-Nov-15 22:30N 34°02' W 024°31'0 0.0 22.1
2017-Nov-15 22:15N 34°02' W 024°31'0 0.0 22.1
2017-Nov-15 21:45N 34°02' W 024°31'0 2.0 22.1
2017-Nov-15 21:30N 34°02' W 024°32'0 2.0 22.1
2017-Nov-15 21:15N 34°02' W 024°31'0 0.0 22.1
2017-Nov-15 21:00N 34°02' W 024°31'1 4.6 22.1
2017-Nov-15 20:45N 34°03' W 024°32'0 0.0 22.1
2017-Nov-15 19:45N 34°03' W 024°32'0 0.0 22.1
2017-Nov-15 19:15N 34°03' W 024°32'0 0.0 22.1
2017-Nov-15 19:00N 34°03' W 024°32'1 1.0 22.1
2017-Nov-15 18:00N 34°03' W 024°34'0 0.0 22.1
2017-Nov-15 17:45N 34°03' W 024°34'1 0.9 22.1
2017-Nov-15 16:15N 34°04' W 024°34'0 0.0 22.1
2017-Nov-15 13:00N 34°04' W 024°34'0 2.0 22.1
2017-Nov-15 12:45N 34°04' W 024°35'0 0.0 22.1
2017-Nov-15 12:00N 34°04' W 024°35'0 0.0 22.1
2017-Nov-15 11:45N 34°04' W 024°35'1 2.6 22.1
2017-Nov-15 11:15N 34°05' W 024°35'0 0.0 22.1
2017-Nov-15 11:00N 34°05' W 024°35'0 0.0 22.1
2017-Nov-15 10:15N 34°05' W 024°35'0 0.0 22.1
2017-Nov-15 09:45N 34°05' W 024°35'1 3.1 22.1
2017-Nov-15 09:30N 34°06' W 024°36'0 0.0 22.1
2017-Nov-15 09:15N 34°06' W 024°36'1 0.6 22.1
2017-Nov-15 08:00N 34°07' W 024°37'0 0.0 22.1
2017-Nov-15 07:45N 34°07' W 024°37'1 2.4 22.1
2017-Nov-15 07:30N 34°06' W 024°37'1 2.4 22.1
2017-Nov-15 07:15N 34°07' W 024°37'0 0.0 22.1
2017-Nov-15 06:45N 34°07' W 024°37'0 2.0 22.1
2017-Nov-15 06:30N 34°07' W 024°36'0 0.0 22.1
2017-Nov-15 05:45N 34°07' W 024°36'2 3.1 22.1
2017-Nov-15 05:00N 34°08' W 024°38'313.9 22.1
2017-Nov-15 04:45N 34°08' W 024°43'0 0.0 22.1
2017-Nov-14 23:45N 34°08' W 024°43'0 2.0 22.1
2017-Nov-14 23:30N 34°08' W 024°43'0 0.0 22.1
2017-Nov-14 23:00N 34°08' W 024°43'1 2.4 22.1
2017-Nov-14 22:45N 34°07' W 024°43'0 0.7 22.1
2017-Nov-14 22:00N 34°07' W 024°44'1 2.4 22.1
2017-Nov-14 21:45N 34°08' W 024°44'0 1.0 22.1
2017-Nov-14 21:15N 34°08' W 024°43'0 2.0 22.1
2017-Nov-14 21:00N 34°08' W 024°44'0 0.0 22.1
2017-Nov-14 20:15N 34°08' W 024°44'0 0.0 22.1
2017-Nov-14 20:00N 34°08' W 024°44'0 0.0 22.1
2017-Nov-14 19:30N 34°08' W 024°44'1 0.6 22.1
2017-Nov-14 18:30N 34°08' W 024°44'1 4.6 22.1
2017-Nov-14 18:15N 34°08' W 024°45'0 0.0 22.1
2017-Nov-14 18:00N 34°08' W 024°45'0 0.0 22.1
2017-Nov-14 17:45N 34°08' W 024°45'0 0.4 22.1
2017-Nov-14 16:30N 34°08' W 024°44'2 9.3 22.1
2017-Nov-14 16:15N 34°07' W 024°47'0 0.0 22.1
2017-Nov-14 14:45N 34°07' W 024°47'0 0.0 22.2
2017-Nov-14 13:15N 34°07' W 024°47'0 0.0 22.2
2017-Nov-14 12:15N 34°07' W 024°47'1 1.0 22.3
2017-Nov-14 11:30N 34°06' W 024°47'0 0.0 22.3
2017-Nov-14 10:45N 34°06' W 024°47'1 2.4 22.3
2017-Nov-14 10:30N 34°05' W 024°47'0 1.0 22.3
2017-Nov-14 10:00N 34°05' W 024°48'1 2.4 22.3
2017-Nov-14 09:45N 34°06' W 024°48'1 0.4 22.3
2017-Nov-14 08:15N 34°05' W 024°48'0 2.0 22.3
2017-Nov-14 08:00N 34°05' W 024°49'0 0.0 22.3
2017-Nov-14 07:45N 34°05' W 024°49'1 0.8 22.3
2017-Nov-14 06:45N 34°05' W 024°48'0 0.0 22.3
2017-Nov-14 06:15N 34°05' W 024°48'1 0.6 22.3
2017-Nov-14 05:15N 34°05' W 024°48'1 3.1 22.3
2017-Nov-14 05:00N 34°06' W 024°49'0 0.0 22.3
2017-Nov-14 00:00N 34°06' W 024°49'0 0.0 22.3
2017-Nov-13 23:45N 34°06' W 024°49'0 0.0 22.3
2017-Nov-13 23:15N 34°06' W 024°49'0 0.0 22.3
2017-Nov-13 23:00N 34°06' W 024°49'0 0.0 22.3
2017-Nov-13 22:15N 34°06' W 024°49'0 0.0 22.3
2017-Nov-13 21:30N 34°06' W 024°49'0 0.0 22.3
2017-Nov-13 21:15N 34°06' W 024°49'0 0.0 22.3
2017-Nov-13 20:45N 34°06' W 024°49'0 0.0 22.3
2017-Nov-13 20:30N 34°06' W 024°49'0 0.0 22.3
2017-Nov-13 20:00N 34°06' W 024°49'0 2.0 22.3
2017-Nov-13 19:45N 34°06' W 024°49'0 0.0 22.3
2017-Nov-13 19:30N 34°06' W 024°49'1 1.6 22.3
2017-Nov-13 19:00N 34°07' W 024°49'0 0.0 22.3
2017-Nov-13 18:30N 34°07' W 024°49'1 4.6 22.3
2017-Nov-13 18:15N 34°07' W 024°47'0 0.3 22.3
2017-Nov-13 16:45N 34°07' W 024°48'0 0.0 22.2
2017-Nov-13 16:30N 34°07' W 024°48'1 0.5 22.1
2017-Nov-13 15:00N 34°08' W 024°47'0 0.0 22.1
2017-Nov-13 12:45N 34°08' W 024°47'0 0.0 22.1
2017-Nov-13 12:30N 34°08' W 024°47'0 0.0 22.1
2017-Nov-13 12:00N 34°08' W 024°47'0 2.0 22.1
2017-Nov-13 11:45N 34°08' W 024°48'0 0.0 22.1
2017-Nov-13 11:00N 34°08' W 024°48'0 0.0 22.1
2017-Nov-13 10:45N 34°08' W 024°48'1 1.2 22.1
2017-Nov-13 10:15N 34°08' W 024°48'1 3.1 22.1
2017-Nov-13 10:00N 34°08' W 024°49'0 0.0 22.1
2017-Nov-13 09:45N 34°08' W 024°49'1 0.8 22.1
2017-Nov-13 08:45N 34°08' W 024°48'0 0.0 22.1
2017-Nov-13 08:30N 34°08' W 024°48'0 0.0 22.1
2017-Nov-13 08:15N 34°08' W 024°48'1 0.6 22.1
2017-Nov-13 07:00N 34°08' W 024°49'0 0.0 22.1
2017-Nov-13 06:45N 34°08' W 024°49'1 0.8 22.1
2017-Nov-13 05:15N 34°09' W 024°49'0 0.0 22.1
2017-Nov-13 00:15N 34°09' W 024°49'1 1.5 22.1
2017-Nov-12 23:30N 34°08' W 024°50'0 0.0 22.1
2017-Nov-12 22:45N 34°08' W 024°50'1 4.8 22.1
2017-Nov-12 22:30N 34°10' W 024°50'0 0.0 22.1
2017-Nov-12 22:00N 34°10' W 024°50'0 0.0 22.1
2017-Nov-12 21:30N 34°10' W 024°50'0 2.0 22.1
2017-Nov-12 21:15N 34°10' W 024°49'0 2.0 22.1
2017-Nov-12 21:00N 34°10' W 024°50'0 0.0 22.1
2017-Nov-12 20:30N 34°10' W 024°50'0 0.0 22.1
2017-Nov-12 20:15N 34°10' W 024°50'0 0.0 22.1
2017-Nov-12 20:00N 34°10' W 024°50'   22.1
Track history (hours):
 
Tides and Currents Weather Stations Pressure Air Temp Water Temp Dewpoint Dewpoint Depression Visibility Wind Speed Wind Dir Waves Ship Positions

Yuehuilaiyu43555

Last reported at 2017-Nov-22 19:45 UTC. Time now 2017-Nov-22 20:39 UTC.
Position N 33°28' W 023°52'.

Length 21 m.

Type: Fishing. MMSI: 412466967.

Water temperature 21.9 ° C

Date/timePositionNaut miles runAvg speedWind from/ knotsBaromVisibWave heightAir tempDewpointWater temp
2017-Nov-22 19:45N 33°28' W 023°52'0 0.0 21.9
2017-Nov-22 19:30N 33°28' W 023°52'0 0.0 21.9
2017-Nov-22 19:15N 33°28' W 023°52'5 4.9 21.9
2017-Nov-22 18:15N 33°32' W 023°53'414.9 21.9
2017-Nov-22 18:00N 33°29' W 023°52'0 0.0 21.9
2017-Nov-22 17:45N 33°29' W 023°52'4 3.7 22.0
2017-Nov-22 16:45N 33°32' W 023°53'0 0.0 22.0
2017-Nov-22 16:30N 33°32' W 023°53'0 0.0 22.0
2017-Nov-22 15:00N 33°32' W 023°53'0 0.0 22.0
2017-Nov-22 13:00N 33°32' W 023°53'0 0.0 22.0
2017-Nov-22 12:45N 33°32' W 023°53'0 0.0 22.0
2017-Nov-22 12:15N 33°32' W 023°53'1 3.1 22.0
2017-Nov-22 12:00N 33°33' W 023°54'1 1.0 22.0
2017-Nov-22 11:15N 33°34' W 023°55'0 0.0 22.0
2017-Nov-22 11:00N 33°34' W 023°55'0 0.0 22.0
2017-Nov-22 10:30N 33°34' W 023°55'0 0.0 22.0
2017-Nov-22 10:15N 33°34' W 023°55'0 0.0 22.0
2017-Nov-22 10:00N 33°34' W 023°55'1 4.7 22.0
2017-Nov-22 09:45N 33°34' W 023°53'0 0.0 22.0
2017-Nov-22 09:30N 33°34' W 023°53'0 0.0 22.0
2017-Nov-22 08:45N 33°34' W 023°53'1 1.2 22.0
2017-Nov-22 08:15N 33°35' W 023°53'1 5.2 22.0
2017-Nov-22 08:00N 33°34' W 023°53'1 1.3 22.0
2017-Nov-22 07:00N 33°35' W 023°53'1 4.8 22.0
2017-Nov-22 06:45N 33°36' W 023°53'0 0.0 250 / 141010.010.8 31.025.422.0
2017-Nov-22 05:30N 33°36' W 023°53'312.2 22.0
2017-Nov-22 05:15N 33°39' W 023°53'0 0.0 22.0
2017-Nov-22 05:00N 33°39' W 023°53'1 0.1 22.0
2017-Nov-21 23:45N 33°40' W 023°53'0 0.0 22.0
2017-Nov-21 23:00N 33°40' W 023°53'1 2.4 22.0
2017-Nov-21 22:45N 33°40' W 023°53'0 0.0 22.0
2017-Nov-21 22:15N 33°40' W 023°53'1 2.4 22.0
2017-Nov-21 22:00N 33°41' W 023°53'0 1.0 22.0
2017-Nov-21 21:30N 33°41' W 023°53'1 3.1 22.0
2017-Nov-21 21:15N 33°41' W 023°52'1 4.0 22.0
2017-Nov-21 21:00N 33°41' W 023°53'0 0.0 22.0
2017-Nov-21 20:00N 33°41' W 023°53'0 0.0 22.1
2017-Nov-21 19:45N 33°41' W 023°53'1 1.0 22.0
2017-Nov-21 18:30N 33°43' W 023°53'0 0.0 22.1
2017-Nov-21 18:15N 33°43' W 023°53'1 0.6 22.1
2017-Nov-21 17:00N 33°43' W 023°54'0 0.0 22.1
2017-Nov-21 16:45N 33°43' W 023°54'1 0.8 22.1
2017-Nov-21 15:15N 33°44' W 023°55'0 0.0 22.1
2017-Nov-21 15:00N 33°44' W 023°55'1 0.3 22.1
2017-Nov-21 12:30N 33°44' W 023°55'0 0.0 22.1
2017-Nov-21 12:15N 33°44' W 023°55'0 0.0 22.1
2017-Nov-21 11:30N 33°44' W 023°55'0 0.0 22.1
2017-Nov-21 10:45N 33°44' W 023°55'0 0.0 22.1
2017-Nov-21 10:15N 33°44' W 023°55'1 3.1 22.1
2017-Nov-21 10:00N 33°45' W 023°54'1 4.7 22.1
2017-Nov-21 09:45N 33°44' W 023°55'0 0.0 22.1
2017-Nov-21 08:45N 33°44' W 023°55'0 2.0 22.1
2017-Nov-21 08:30N 33°44' W 023°56'0 0.0 22.1
2017-Nov-21 08:15N 33°44' W 023°56'0 1.0 22.1
2017-Nov-21 07:45N 33°44' W 023°55'0 0.0 22.1
2017-Nov-21 07:30N 33°44' W 023°55'0 2.0 22.1
2017-Nov-21 07:15N 33°44' W 023°56'0 0.0 22.1
2017-Nov-21 07:00N 33°44' W 023°56'0 0.0 22.1
2017-Nov-21 06:00N 33°44' W 023°56'1 3.1 22.1
2017-Nov-21 05:45N 33°45' W 023°56'1 6.0 22.1
2017-Nov-21 05:30N 33°45' W 023°58'0 0.0 22.1
2017-Nov-21 05:15N 33°45' W 023°58'0 0.0 22.1
2017-Nov-21 03:45N 33°45' W 023°58'0 0.0 22.1
2017-Nov-21 00:15N 33°45' W 023°58'0 0.0 22.2
2017-Nov-21 00:00N 33°45' W 023°58'1 0.8 22.2
2017-Nov-20 23:15N 33°44' W 023°58'1 4.0 22.2
2017-Nov-20 23:00N 33°44' W 023°59'0 0.0 22.2
2017-Nov-20 22:30N 33°44' W 023°59'0 2.0 22.2
2017-Nov-20 22:15N 33°44' W 024°00'0 0.0 22.2
2017-Nov-20 21:45N 33°44' W 024°00'1 4.0 22.2
2017-Nov-20 21:30N 33°44' W 024°01'0 0.0 22.2
2017-Nov-20 20:45N 33°44' W 024°01'0 0.0 22.2
2017-Nov-20 20:30N 33°44' W 024°01'1 3.1 22.2
2017-Nov-20 20:15N 33°44' W 024°01'0 0.0 22.2
2017-Nov-20 20:00N 33°44' W 024°01'0 0.0 22.2
2017-Nov-20 19:45N 33°44' W 024°01'1 1.2 22.2
2017-Nov-20 18:45N 33°43' W 024°02'0 0.0 22.2
2017-Nov-20 18:30N 33°43' W 024°02'0 0.0 22.2
2017-Nov-20 17:00N 33°43' W 024°02'0 0.0 22.1
2017-Nov-20 16:45N 33°43' W 024°02'1 0.5 22.1
2017-Nov-20 15:30N 33°43' W 024°02'0 0.0 22.1
2017-Nov-20 15:15N 33°43' W 024°02'1 0.5 22.1
2017-Nov-20 12:45N 33°43' W 024°03'0 0.0 22.1
2017-Nov-20 12:00N 33°43' W 024°03'0 0.0 22.1
2017-Nov-20 11:45N 33°43' W 024°03'0 0.0 22.1
2017-Nov-20 11:15N 33°43' W 024°03'0 0.0 22.1
2017-Nov-20 11:00N 33°43' W 024°03'0 0.7 22.1
2017-Nov-20 10:15N 33°43' W 024°04'0 0.0 22.1
2017-Nov-20 10:00N 33°43' W 024°04'0 0.3 22.1
2017-Nov-20 08:30N 33°43' W 024°04'0 2.0 22.1
2017-Nov-20 08:15N 33°43' W 024°04'0 0.0 22.1
2017-Nov-20 08:00N 33°43' W 024°04'0 0.0 22.1
2017-Nov-20 07:15N 33°43' W 024°04'0 0.0 22.1
2017-Nov-20 06:30N 33°43' W 024°04'0 0.0 22.1
2017-Nov-20 06:15N 33°43' W 024°04'0 1.0 22.1
2017-Nov-20 05:45N 33°43' W 024°04'0 2.0 22.1
2017-Nov-20 05:30N 33°43' W 024°05'1 0.5 22.1
2017-Nov-20 04:00N 33°44' W 024°05'0 0.0 22.1
2017-Nov-20 03:45N 33°44' W 024°05'1 0.3 22.1
2017-Nov-19 23:30N 33°43' W 024°05'1 0.8 22.1
2017-Nov-19 22:45N 33°42' W 024°05'0 0.0 22.1
2017-Nov-19 22:00N 33°42' W 024°05'0 2.0 22.1
2017-Nov-19 21:45N 33°42' W 024°05'0 0.0 22.1
2017-Nov-19 21:15N 33°42' W 024°05'0 0.0 22.1
2017-Nov-19 21:00N 33°42' W 024°05'0 0.0 22.1
2017-Nov-19 20:45N 33°42' W 024°05'0 0.0 22.1
2017-Nov-19 20:15N 33°42' W 024°05'0 0.0 22.1
2017-Nov-19 20:00N 33°42' W 024°05'0 0.7 22.2
2017-Nov-19 19:15N 33°42' W 024°04'0 0.0 22.1
2017-Nov-19 19:00N 33°42' W 024°04'0 1.0 22.1
2017-Nov-19 18:30N 33°42' W 024°04'0 0.0 22.1
2017-Nov-19 17:15N 33°42' W 024°04'0 0.0 22.2
2017-Nov-19 17:00N 33°42' W 024°04'1 0.5 22.2
2017-Nov-19 15:30N 33°43' W 024°03'1 0.6 22.1
2017-Nov-19 13:15N 33°44' W 024°02'0 0.0 22.1
2017-Nov-19 13:00N 33°44' W 024°02'1 0.8 22.0
2017-Nov-19 12:15N 33°44' W 024°02'0 0.0 22.0
2017-Nov-19 12:00N 33°44' W 024°02'1 1.6 22.0
2017-Nov-19 11:30N 33°44' W 024°02'0 0.0 22.0
2017-Nov-19 11:15N 33°44' W 024°02'1 1.2 22.0
2017-Nov-19 10:45N 33°44' W 024°02'1 3.1 22.0
2017-Nov-19 10:30N 33°45' W 024°01'0 0.0 22.0
2017-Nov-19 10:15N 33°45' W 024°01'0 0.0 22.0
2017-Nov-19 09:45N 33°45' W 024°01'0 0.0 22.0
2017-Nov-19 09:30N 33°45' W 024°01'0 0.0 22.0
2017-Nov-19 09:00N 33°45' W 024°01'0 2.0 22.0
2017-Nov-19 08:45N 33°45' W 024°01'0 0.0 22.0
2017-Nov-19 08:30N 33°45' W 024°01'0 0.0 22.0
2017-Nov-19 07:45N 33°45' W 024°01'1 2.4 22.0
2017-Nov-19 07:30N 33°46' W 024°01'1 1.2 22.0
2017-Nov-19 07:00N 33°45' W 024°01'0 0.0 22.0
2017-Nov-19 06:45N 33°45' W 024°01'1 0.8 22.0
2017-Nov-19 06:00N 33°46' W 024°01'1 3.1 22.0
2017-Nov-19 05:45N 33°46' W 024°00'0 0.0 22.1
2017-Nov-19 05:15N 33°46' W 024°00'0 0.0 22.1
2017-Nov-19 04:15N 33°46' W 024°00'1 5.2 22.0
2017-Nov-19 04:00N 33°47' W 023°59'0 0.0 22.1
2017-Nov-19 00:00N 33°47' W 023°59'1 2.4 22.1
2017-Nov-18 23:45N 33°48' W 023°59'0 0.0 22.1
2017-Nov-18 23:15N 33°48' W 023°59'1 3.1 22.1
2017-Nov-18 23:00N 33°49' W 023°59'1 1.0 22.1
2017-Nov-18 22:15N 33°49' W 023°59'0 0.0 22.1
2017-Nov-18 22:00N 33°49' W 023°59'1 1.6 22.1
2017-Nov-18 21:30N 33°49' W 023°59'1 4.8 22.1
2017-Nov-18 21:15N 33°50' W 023°59'0 0.0 22.1
2017-Nov-18 21:00N 33°50' W 023°59'0 0.0 22.1
2017-Nov-18 20:30N 33°50' W 023°59'0 0.0 22.1
2017-Nov-18 20:15N 33°50' W 023°59'0 0.0 22.1
2017-Nov-18 19:45N 33°50' W 023°59'0 2.0 22.1
2017-Nov-18 19:30N 33°50' W 023°58'1 1.7 22.1
2017-Nov-18 18:45N 33°51' W 023°59'0 0.7 22.2
2017-Nov-18 18:00N 33°51' W 023°59'0 0.0 22.2
2017-Nov-18 17:45N 33°51' W 023°59'0 0.0 22.2
2017-Nov-18 17:30N 33°51' W 023°59'0 0.0 22.3
2017-Nov-18 17:15N 33°51' W 023°59'3 2.1 22.3
2017-Nov-18 15:45N 33°53' W 024°02'2 9.4 22.4
2017-Nov-18 15:30N 33°52' W 024°00'2 0.8 22.4
2017-Nov-18 12:30N 33°53' W 024°02'0 0.0 22.3
2017-Nov-18 12:00N 33°53' W 024°02'1 3.1 22.2
2017-Nov-18 11:45N 33°54' W 024°02'0 0.0 22.1
2017-Nov-18 11:00N 33°54' W 024°02'0 2.0 22.1
2017-Nov-18 10:45N 33°54' W 024°03'0 0.0 22.1
2017-Nov-18 10:30N 33°54' W 024°03'0 0.0 22.0
2017-Nov-18 10:15N 33°54' W 024°03'1 2.4 22.0
2017-Nov-18 10:00N 33°55' W 024°03'0 0.0 22.0
2017-Nov-18 09:45N 33°55' W 024°03'1 2.0 22.0
2017-Nov-18 09:00N 33°55' W 024°05'0 0.0 22.0
2017-Nov-18 08:45N 33°55' W 024°05'1 1.6 22.0
2017-Nov-18 08:15N 33°55' W 024°05'0 0.0 22.0
2017-Nov-18 08:00N 33°55' W 024°05'1 1.2 22.0
2017-Nov-18 07:30N 33°55' W 024°05'1 3.1 22.0
2017-Nov-18 07:15N 33°55' W 024°06'0 0.0 22.0
2017-Nov-18 06:30N 33°55' W 024°06'1 1.2 22.0
2017-Nov-18 06:00N 33°56' W 024°06'0 0.0 22.0
2017-Nov-18 05:45N 33°56' W 024°06'2 1.6 22.0
2017-Nov-18 04:15N 33°58' W 024°08'0 0.0 22.0
2017-Nov-18 00:15N 33°58' W 024°08'1 1.0 22.1
2017-Nov-17 23:30N 33°58' W 024°08'0 0.0 22.1
2017-Nov-17 23:15N 33°58' W 024°08'0 0.0 22.1
2017-Nov-17 22:30N 33°58' W 024°08'0 0.0 22.1
2017-Nov-17 22:15N 33°58' W 024°08'0 0.0 22.1
2017-Nov-17 22:00N 33°58' W 024°08'1 4.6 22.1
2017-Nov-17 21:45N 33°59' W 024°10'0 0.0 22.1
2017-Nov-17 21:00N 33°59' W 024°10'0 0.0 22.2
2017-Nov-17 20:45N 33°59' W 024°10'0 0.0 22.2
2017-Nov-17 20:30N 33°59' W 024°10'0 0.0 22.2
2017-Nov-17 20:15N 33°59' W 024°10'0 2.0 22.2
2017-Nov-17 20:00N 33°59' W 024°10'0 0.0 22.2
2017-Nov-17 19:45N 33°59' W 024°10'2 2.1 22.2
2017-Nov-17 19:00N 33°59' W 024°12'0 0.0 22.3
2017-Nov-17 18:45N 33°59' W 024°12'0 0.0 22.4
2017-Nov-17 18:15N 33°59' W 024°12'0 0.0 22.5
2017-Nov-17 17:45N 33°59' W 024°12'0 0.0 22.6
2017-Nov-17 17:30N 33°59' W 024°12'1 1.0 22.6
2017-Nov-17 16:00N 33°59' W 024°14'0 0.0 22.7
2017-Nov-17 15:45N 33°59' W 024°14'2 0.8 22.7
2017-Nov-17 13:00N 33°58' W 024°16'0 0.0 22.4
2017-Nov-17 12:45N 33°58' W 024°16'0 0.0 22.4
2017-Nov-17 12:15N 33°58' W 024°16'0 0.0 22.4
2017-Nov-17 12:00N 33°58' W 024°16'0 0.0 22.3
2017-Nov-17 11:15N 33°58' W 024°16'0 0.0 22.1
2017-Nov-17 11:00N 33°58' W 024°16'0 0.0 22.1
2017-Nov-17 10:45N 33°58' W 024°16'0 2.0 22.1
2017-Nov-17 10:30N 33°58' W 024°17'0 0.0 22.1
2017-Nov-17 10:15N 33°58' W 024°17'0 0.0 22.1
2017-Nov-17 09:30N 33°58' W 024°17'1 3.1 22.1
2017-Nov-17 09:15N 33°58' W 024°17'0 0.0 22.1
2017-Nov-17 09:00N 33°58' W 024°17'0 0.0 22.1
2017-Nov-17 08:30N 33°58' W 024°17'0 0.0 22.1
2017-Nov-17 08:00N 33°58' W 024°17'0 0.0 22.1
2017-Nov-17 07:30N 33°58' W 024°17'0 0.0 22.1
2017-Nov-17 07:00N 33°58' W 024°17'0 0.0 22.1
2017-Nov-17 06:30N 33°58' W 024°17'1 3.1 22.1
2017-Nov-17 06:15N 33°58' W 024°18'0 2.0 22.1
2017-Nov-17 06:00N 33°58' W 024°19'0 0.0 22.1
2017-Nov-17 04:30N 33°58' W 024°19'2 0.4 22.1
2017-Nov-17 00:00N 33°58' W 024°21'0 0.0 22.1
2017-Nov-16 23:45N 33°58' W 024°21'0 0.0 22.1
2017-Nov-16 23:00N 33°58' W 024°21'0 2.0 22.1
2017-Nov-16 22:45N 33°58' W 024°22'0 0.0 22.1
2017-Nov-16 22:15N 33°58' W 024°22'1 3.1 22.1
2017-Nov-16 22:00N 33°58' W 024°21'1 1.0 22.1
2017-Nov-16 21:15N 33°58' W 024°22'1 1.2 22.1
2017-Nov-16 20:45N 33°58' W 024°22'1 2.4 22.1
2017-Nov-16 20:30N 33°58' W 024°22'0 0.0 22.1
2017-Nov-16 20:15N 33°58' W 024°22'0 0.0 22.1
2017-Nov-16 19:15N 33°58' W 024°22'0 0.0 22.1
2017-Nov-16 19:00N 33°58' W 024°22'0 0.0 22.1
2017-Nov-16 18:45N 33°58' W 024°22'0 0.0 22.1
2017-Nov-16 18:30N 33°58' W 024°22'1 2.0 22.1
2017-Nov-16 17:45N 33°58' W 024°23'0 0.0 22.2
2017-Nov-16 16:15N 33°58' W 024°23'2 6.2 22.2
2017-Nov-16 16:00N 33°59' W 024°25'0 0.0 22.2
2017-Nov-16 13:15N 33°59' W 024°25'0 0.7 22.1
2017-Nov-16 12:30N 33°59' W 024°25'0 0.0 22.1
2017-Nov-16 11:45N 33°59' W 024°25'0 0.0 22.1
2017-Nov-16 11:30N 33°59' W 024°25'0 0.0 22.1
2017-Nov-16 11:00N 33°59' W 024°25'1 2.4 22.1
2017-Nov-16 10:45N 34°00' W 024°25'1 1.0 22.1
2017-Nov-16 10:00N 33°59' W 024°26'0 0.0 22.0
2017-Nov-16 09:45N 33°59' W 024°26'0 0.0 22.0
2017-Nov-16 09:30N 33°59' W 024°26'0 0.0 22.0
2017-Nov-16 09:15N 33°59' W 024°26'1 2.4 22.0
2017-Nov-16 09:00N 34°00' W 024°26'0 0.0 22.0
2017-Nov-16 08:30N 34°00' W 024°26'0 0.0 22.0
2017-Nov-16 07:45N 34°00' W 024°26'0 0.0 22.0
2017-Nov-16 07:15N 34°00' W 024°26'0 0.0 22.0
2017-Nov-16 07:00N 34°00' W 024°26'0 0.0 22.0
2017-Nov-16 06:45N 34°00' W 024°26'1 3.1 22.0
2017-Nov-16 06:30N 34°01' W 024°26'1 3.1 22.0
2017-Nov-16 06:15N 34°01' W 024°27'0 0.0 22.0
2017-Nov-16 05:15N 34°01' W 024°27'3 6.1 22.0
2017-Nov-16 04:45N 34°02' W 024°31'0 0.0 22.0
2017-Nov-16 04:30N 34°02' W 024°31'0 0.0 22.0
2017-Nov-16 00:15N 34°02' W 024°31'0 0.0 22.0
2017-Nov-16 00:00N 34°02' W 024°31'1 1.0 22.0
2017-Nov-15 23:15N 34°02' W 024°31'0 0.0 22.1
2017-Nov-15 22:30N 34°02' W 024°31'0 0.0 22.1
2017-Nov-15 22:15N 34°02' W 024°31'0 0.0 22.1
2017-Nov-15 21:45N 34°02' W 024°31'0 2.0 22.1
2017-Nov-15 21:30N 34°02' W 024°32'0 2.0 22.1
2017-Nov-15 21:15N 34°02' W 024°31'0 0.0 22.1
2017-Nov-15 21:00N 34°02' W 024°31'1 4.6 22.1
2017-Nov-15 20:45N 34°03' W 024°32'0 0.0 22.1
2017-Nov-15 19:45N 34°03' W 024°32'0 0.0 22.1
2017-Nov-15 19:15N 34°03' W 024°32'0 0.0 22.1
2017-Nov-15 19:00N 34°03' W 024°32'1 1.0 22.1
2017-Nov-15 18:00N 34°03' W 024°34'0 0.0 22.1
2017-Nov-15 17:45N 34°03' W 024°34'1 0.9 22.1
2017-Nov-15 16:15N 34°04' W 024°34'0 0.0 22.1
2017-Nov-15 13:00N 34°04' W 024°34'0 2.0 22.1
2017-Nov-15 12:45N 34°04' W 024°35'0 0.0 22.1
2017-Nov-15 12:00N 34°04' W 024°35'0 0.0 22.1
2017-Nov-15 11:45N 34°04' W 024°35'1 2.6 22.1
2017-Nov-15 11:15N 34°05' W 024°35'0 0.0 22.1
2017-Nov-15 11:00N 34°05' W 024°35'0 0.0 22.1
2017-Nov-15 10:15N 34°05' W 024°35'0 0.0 22.1
2017-Nov-15 09:45N 34°05' W 024°35'1 3.1 22.1
2017-Nov-15 09:30N 34°06' W 024°36'0 0.0 22.1
2017-Nov-15 09:15N 34°06' W 024°36'1 0.6 22.1
2017-Nov-15 08:00N 34°07' W 024°37'0 0.0 22.1
2017-Nov-15 07:45N 34°07' W 024°37'1 2.4 22.1
2017-Nov-15 07:30N 34°06' W 024°37'1 2.4 22.1
2017-Nov-15 07:15N 34°07' W 024°37'0 0.0 22.1
2017-Nov-15 06:45N 34°07' W 024°37'0 2.0 22.1
2017-Nov-15 06:30N 34°07' W 024°36'0 0.0 22.1
2017-Nov-15 05:45N 34°07' W 024°36'2 3.1 22.1
2017-Nov-15 05:00N 34°08' W 024°38'313.9 22.1
2017-Nov-15 04:45N 34°08' W 024°43'0 0.0 22.1
2017-Nov-14 23:45N 34°08' W 024°43'0 2.0 22.1
2017-Nov-14 23:30N 34°08' W 024°43'0 0.0 22.1
2017-Nov-14 23:00N 34°08' W 024°43'1 2.4 22.1
2017-Nov-14 22:45N 34°07' W 024°43'0 0.7 22.1
2017-Nov-14 22:00N 34°07' W 024°44'1 2.4 22.1
2017-Nov-14 21:45N 34°08' W 024°44'0 1.0 22.1
2017-Nov-14 21:15N 34°08' W 024°43'0 2.0 22.1
2017-Nov-14 21:00N 34°08' W 024°44'0 0.0 22.1
2017-Nov-14 20:15N 34°08' W 024°44'0 0.0 22.1
2017-Nov-14 20:00N 34°08' W 024°44'0 0.0 22.1
2017-Nov-14 19:30N 34°08' W 024°44'1 0.6 22.1
2017-Nov-14 18:30N 34°08' W 024°44'1 4.6 22.1
2017-Nov-14 18:15N 34°08' W 024°45'0 0.0 22.1
2017-Nov-14 18:00N 34°08' W 024°45'0 0.0 22.1
2017-Nov-14 17:45N 34°08' W 024°45'0 0.4 22.1
2017-Nov-14 16:30N 34°08' W 024°44'2 9.3 22.1
2017-Nov-14 16:15N 34°07' W 024°47'0 0.0 22.1
2017-Nov-14 14:45N 34°07' W 024°47'0 0.0 22.2
2017-Nov-14 13:15N 34°07' W 024°47'0 0.0 22.2
2017-Nov-14 12:15N 34°07' W 024°47'1 1.0 22.3
2017-Nov-14 11:30N 34°06' W 024°47'0 0.0 22.3
2017-Nov-14 10:45N 34°06' W 024°47'1 2.4 22.3
2017-Nov-14 10:30N 34°05' W 024°47'0 1.0 22.3
2017-Nov-14 10:00N 34°05' W 024°48'1 2.4 22.3
2017-Nov-14 09:45N 34°06' W 024°48'1 0.4 22.3
2017-Nov-14 08:15N 34°05' W 024°48'0 2.0 22.3
2017-Nov-14 08:00N 34°05' W 024°49'0 0.0 22.3
2017-Nov-14 07:45N 34°05' W 024°49'1 0.8 22.3
2017-Nov-14 06:45N 34°05' W 024°48'0 0.0 22.3
2017-Nov-14 06:15N 34°05' W 024°48'1 0.6 22.3
2017-Nov-14 05:15N 34°05' W 024°48'1 3.1 22.3
2017-Nov-14 05:00N 34°06' W 024°49'0 0.0 22.3
2017-Nov-14 00:00N 34°06' W 024°49'0 0.0 22.3
2017-Nov-13 23:45N 34°06' W 024°49'0 0.0 22.3
2017-Nov-13 23:15N 34°06' W 024°49'0 0.0 22.3
2017-Nov-13 23:00N 34°06' W 024°49'0 0.0 22.3
2017-Nov-13 22:15N 34°06' W 024°49'0 0.0 22.3
2017-Nov-13 21:30N 34°06' W 024°49'0 0.0 22.3
2017-Nov-13 21:15N 34°06' W 024°49'0 0.0 22.3
2017-Nov-13 20:45N 34°06' W 024°49'0 0.0 22.3
2017-Nov-13 20:30N 34°06' W 024°49'0 0.0 22.3
2017-Nov-13 20:00N 34°06' W 024°49'0 2.0 22.3
2017-Nov-13 19:45N 34°06' W 024°49'0 0.0 22.3
2017-Nov-13 19:30N 34°06' W 024°49'1 1.6 22.3
2017-Nov-13 19:00N 34°07' W 024°49'0 0.0 22.3
2017-Nov-13 18:30N 34°07' W 024°49'1 4.6 22.3
2017-Nov-13 18:15N 34°07' W 024°47'0 0.3 22.3
2017-Nov-13 16:45N 34°07' W 024°48'0 0.0 22.2
2017-Nov-13 16:30N 34°07' W 024°48'1 0.5 22.1
2017-Nov-13 15:00N 34°08' W 024°47'0 0.0 22.1
2017-Nov-13 12:45N 34°08' W 024°47'0 0.0 22.1
2017-Nov-13 12:30N 34°08' W 024°47'0 0.0 22.1
2017-Nov-13 12:00N 34°08' W 024°47'0 2.0 22.1
2017-Nov-13 11:45N 34°08' W 024°48'0 0.0 22.1
2017-Nov-13 11:00N 34°08' W 024°48'0 0.0 22.1
2017-Nov-13 10:45N 34°08' W 024°48'1 1.2 22.1
2017-Nov-13 10:15N 34°08' W 024°48'1 3.1 22.1
2017-Nov-13 10:00N 34°08' W 024°49'0 0.0 22.1
2017-Nov-13 09:45N 34°08' W 024°49'1 0.8 22.1
2017-Nov-13 08:45N 34°08' W 024°48'0 0.0 22.1
2017-Nov-13 08:30N 34°08' W 024°48'0 0.0 22.1
2017-Nov-13 08:15N 34°08' W 024°48'1 0.6 22.1
2017-Nov-13 07:00N 34°08' W 024°49'0 0.0 22.1
2017-Nov-13 06:45N 34°08' W 024°49'1 0.8 22.1
2017-Nov-13 05:15N 34°09' W 024°49'0 0.0 22.1
2017-Nov-13 00:15N 34°09' W 024°49'1 1.5 22.1
2017-Nov-12 23:30N 34°08' W 024°50'0 0.0 22.1
2017-Nov-12 22:45N 34°08' W 024°50'1 4.8 22.1
2017-Nov-12 22:30N 34°10' W 024°50'0 0.0 22.1
2017-Nov-12 22:00N 34°10' W 024°50'0 0.0 22.1
2017-Nov-12 21:30N 34°10' W 024°50'0 2.0 22.1
2017-Nov-12 21:15N 34°10' W 024°49'0 2.0 22.1
2017-Nov-12 21:00N 34°10' W 024°50'0 0.0 22.1
2017-Nov-12 20:30N 34°10' W 024°50'0 0.0 22.1
2017-Nov-12 20:15N 34°10' W 024°50'0 0.0 22.1
2017-Nov-12 20:00N 34°10' W 024°50'   22.1

Dump ship's entire track history